Time,TemperatureF,DewpointF,PressureIn,WindDirection,WindDirectionDegrees,WindSpeedMPH,WindSpeedGustMPH,Humidity,HourlyPrecipIn,Conditions,Clouds,dailyrainin,SoftwareType,DateUTC
2013-02-07 00:00:00,29.5,6.4,30.32,West,261,0.0,3.0,37,0.00,,SKC,0.07,VWS V14.01,2013-02-07 05:00:00,
2013-02-07 00:01:00,29.5,6.4,30.32,West,261,0.0,3.0,37,0.00,,SKC,0.07,VWS V14.01,2013-02-07 05:01:00,
2013-02-07 00:02:00,29.5,7.0,30.32,WSW,258,0.0,1.0,38,0.00,,SKC,0.00,VWS V14.01,2013-02-07 05:02:00,
2013-02-07 00:04:00,29.4,6.9,30.32,West,259,2.0,2.0,38,0.00,,SKC,0.00,VWS V14.01,2013-02-07 05:04:00,
2013-02-07 00:09:00,29.3,7.4,30.32,SW,236,3.0,3.0,39,0.00,,SKC,0.00,VWS V14.01,2013-02-07 05:09:00,
2013-02-07 00:10:00,29.3,7.4,30.32,West,276,2.0,3.0,39,0.00,,SKC,0.00,VWS V14.01,2013-02-07 05:10:00,
2013-02-07 00:14:00,29.1,6.7,30.31,WSW,253,0.0,4.0,38,0.00,,SKC,0.00,VWS V14.01,2013-02-07 05:14:00,
2013-02-07 00:20:00,29.1,6.1,30.31,WSW,242,0.0,5.0,37,0.00,,SKC,0.00,VWS V14.01,2013-02-07 05:20:00,
2013-02-07 00:25:00,29.0,6.0,30.32,West,265,3.0,4.0,37,0.00,,SKC,0.00,VWS V14.01,2013-02-07 05:25:00,
2013-02-07 00:30:00,28.8,5.2,30.32,West,270,1.0,9.0,36,0.00,,SKC,0.00,VWS V14.01,2013-02-07 05:30:00,
2013-02-07 00:40:00,28.7,5.7,30.32,WNW,292,1.0,3.0,37,0.00,,SKC,0.00,VWS V14.01,2013-02-07 05:40:00,
2013-02-07 00:50:00,28.5,4.3,30.31,WSW,248,1.0,6.0,35,0.00,,SKC,0.00,VWS V14.01,2013-02-07 05:50:00,
2013-02-07 01:00:00,28.4,3.6,30.31,WNW,292,2.0,6.0,34,0.00,,SKC,0.00,VWS V14.01,2013-02-07 06:00:00,
2013-02-07 01:10:00,28.2,4.1,30.31,SW,225,1.0,5.0,35,0.00,,SKC,0.00,VWS V14.01,2013-02-07 06:10:00,
2013-02-07 01:20:00,27.9,1.9,30.31,NW,315,1.0,4.0,32,0.00,,SKC,0.00,VWS V14.01,2013-02-07 06:20:00,
2013-02-07 01:30:00,27.8,3.1,30.32,NW,315,1.0,8.0,34,0.00,,SKC,0.00,VWS V14.01,2013-02-07 06:30:00,
2013-02-07 01:40:00,27.5,2.8,30.33,SW,225,1.0,5.0,34,0.00,,SKC,0.00,VWS V14.01,2013-02-07 06:40:00,
2013-02-07 01:50:00,27.3,3.3,30.33,West,270,1.0,6.0,35,0.00,,SKC,0.00,VWS V14.01,2013-02-07 06:50:00,
2013-02-07 02:00:00,27.2,3.2,30.34,SSE,158,1.0,5.0,35,0.00,,SKC,0.00,VWS V14.01,2013-02-07 07:00:00,
2013-02-07 02:10:00,27.0,3.0,30.34,NW,315,1.0,5.0,35,0.00,,SKC,0.00,VWS V14.01,2013-02-07 07:10:00,
2013-02-07 02:20:00,26.9,1.6,30.35,West,270,2.0,6.0,33,0.00,,SKC,0.00,VWS V14.01,2013-02-07 07:20:00,
2013-02-07 02:30:00,26.7,2.7,30.36,SW,225,1.0,6.0,35,0.00,,SKC,0.00,VWS V14.01,2013-02-07 07:30:00,
2013-02-07 02:40:00,26.6,4.4,30.36,SSE,158,1.0,5.0,38,0.00,,SKC,0.00,VWS V14.01,2013-02-07 07:40:00,
2013-02-07 02:50:00,26.3,5.3,30.37,SSW,202,0.0,5.0,40,0.00,,SKC,0.00,VWS V14.01,2013-02-07 07:50:00,
2013-02-07 03:00:00,26.1,5.6,30.37,SSW,202,0.0,2.0,41,0.00,,SKC,0.00,VWS V14.01,2013-02-07 08:00:00,
2013-02-07 03:10:00,26.0,5.5,30.37,East,90,0.0,4.0,41,0.00,,SKC,0.00,VWS V14.01,2013-02-07 08:10:00,
2013-02-07 03:20:00,25.8,6.4,30.36,East,90,0.0,4.0,43,0.00,,SKC,0.00,VWS V14.01,2013-02-07 08:20:00,
2013-02-07 03:30:00,25.6,6.2,30.36,SW,225,1.0,5.0,43,0.00,,SKC,0.00,VWS V14.01,2013-02-07 08:30:00,
2013-02-07 03:40:00,25.6,6.2,30.36,SW,225,1.0,4.0,43,0.00,,SKC,0.00,VWS V14.01,2013-02-07 08:40:00,
2013-02-07 03:50:00,25.4,6.5,30.36,WSW,248,0.0,3.0,44,0.00,,SKC,0.00,VWS V14.01,2013-02-07 08:50:00,
2013-02-07 04:00:00,25.4,6.0,30.37,WSW,248,1.0,5.0,43,0.00,,SKC,0.00,VWS V14.01,2013-02-07 09:00:00,
2013-02-07 04:10:00,25.3,6.9,30.38,SE,135,1.0,4.0,45,0.00,,SKC,0.00,VWS V14.01,2013-02-07 09:10:00,
2013-02-07 04:20:00,25.3,6.9,30.39,SE,135,0.0,2.0,45,0.00,,SKC,0.00,VWS V14.01,2013-02-07 09:20:00,
2013-02-07 04:30:00,25.1,7.2,30.40,South,180,0.0,5.0,46,0.00,,SKC,0.00,VWS V14.01,2013-02-07 09:30:00,
2013-02-07 04:40:00,24.8,7.0,30.39,South,180,0.0,1.0,46,0.00,,SKC,0.00,VWS V14.01,2013-02-07 09:40:00,
2013-02-07 04:50:00,24.7,7.3,30.39,South,180,0.0,1.0,47,0.00,,SKC,0.00,VWS V14.01,2013-02-07 09:50:00,
2013-02-07 05:00:00,24.5,7.6,30.39,South,180,0.0,2.0,48,0.00,,SKC,0.00,VWS V14.01,2013-02-07 10:00:00,
2013-02-07 05:10:00,24.5,8.1,30.40,South,180,0.0,2.0,49,0.00,,SKC,0.00,VWS V14.01,2013-02-07 10:10:00,
2013-02-07 05:20:00,24.4,7.5,30.40,South,180,0.0,2.0,48,0.00,,SKC,0.00,VWS V14.01,2013-02-07 10:20:00,
2013-02-07 05:30:00,24.4,8.0,30.40,South,180,0.0,2.0,49,0.00,,SKC,0.00,VWS V14.01,2013-02-07 10:30:00,
2013-02-07 05:40:00,24.4,8.4,30.41,South,180,0.0,2.0,50,0.00,,SKC,0.00,VWS V14.01,2013-02-07 10:40:00,
2013-02-07 05:50:00,24.2,8.7,30.41,ESE,112,0.0,2.0,51,0.00,,SKC,0.00,VWS V14.01,2013-02-07 10:50:00,
2013-02-07 06:00:00,24.1,9.0,30.42,ESE,112,0.0,2.0,52,0.00,,SKC,0.00,VWS V14.01,2013-02-07 11:00:00,
2013-02-07 06:10:00,23.9,8.9,30.42,ESE,112,0.0,1.0,52,0.00,,SKC,0.00,VWS V14.01,2013-02-07 11:10:00,
2013-02-07 06:20:00,23.9,8.4,30.42,ESE,112,0.0,2.0,51,0.00,,SKC,0.00,VWS V14.01,2013-02-07 11:20:00,
2013-02-07 06:30:00,23.9,8.4,30.42,ESE,112,0.0,1.0,51,0.00,,SKC,0.00,VWS V14.01,2013-02-07 11:30:00,
2013-02-07 06:40:00,23.9,8.0,30.43,ESE,112,0.0,1.0,50,0.00,,SKC,0.00,VWS V14.01,2013-02-07 11:40:00,
2013-02-07 06:50:00,24.1,8.2,30.42,SE,135,0.0,2.0,50,0.00,,SKC,0.00,VWS V14.01,2013-02-07 11:50:00,
2013-02-07 07:00:00,24.2,8.3,30.43,SE,135,0.0,4.0,50,0.00,,SKC,0.00,VWS V14.01,2013-02-07 12:00:00,
2013-02-07 07:10:00,24.4,8.9,30.43,SE,135,0.0,2.0,51,0.00,,SKC,0.00,VWS V14.01,2013-02-07 12:10:00,
2013-02-07 07:20:00,24.5,9.0,30.43,ENE,68,0.0,4.0,51,0.00,,SKC,0.00,VWS V14.01,2013-02-07 12:20:00,
2013-02-07 07:30:00,24.7,9.2,30.43,ENE,68,0.0,3.0,51,0.00,,SKC,0.00,VWS V14.01,2013-02-07 12:30:00,
2013-02-07 07:40:00,24.8,9.7,30.45,ENE,68,0.0,1.0,52,0.00,,SKC,0.00,VWS V14.01,2013-02-07 12:40:00,
2013-02-07 07:50:00,25.1,10.0,30.46,ENE,68,0.0,2.0,52,0.00,,SKC,0.00,VWS V14.01,2013-02-07 12:50:00,
2013-02-07 08:00:00,25.3,10.1,30.47,ENE,68,0.0,0.0,52,0.00,,SKC,0.00,VWS V14.01,2013-02-07 13:00:00,
2013-02-07 08:10:00,25.6,10.0,30.48,ENE,68,0.0,2.0,51,0.00,,SKC,0.00,VWS V14.01,2013-02-07 13:10:00,
2013-02-07 08:20:00,25.7,10.1,30.48,ENE,68,0.0,2.0,51,0.00,,SKC,0.00,VWS V14.01,2013-02-07 13:20:00,
2013-02-07 08:30:00,26.0,10.4,30.48,ENE,68,0.0,2.0,51,0.00,,SKC,0.00,VWS V14.01,2013-02-07 13:30:00,
2013-02-07 08:40:00,26.3,11.1,30.48,ENE,68,0.0,3.0,52,0.00,,SKC,0.00,VWS V14.01,2013-02-07 13:40:00,
2013-02-07 08:50:00,26.6,11.4,30.48,ENE,68,0.0,3.0,52,0.00,,SKC,0.00,VWS V14.01,2013-02-07 13:50:00,
2013-02-07 09:00:00,26.9,12.1,30.48,ENE,68,0.0,4.0,53,0.00,,SKC,0.00,VWS V14.01,2013-02-07 14:00:00,
2013-02-07 09:10:00,27.2,11.9,30.48,ENE,68,0.0,5.0,52,0.00,,SKC,0.00,VWS V14.01,2013-02-07 14:10:00,
2013-02-07 09:20:00,27.5,11.3,30.48,NNE,22,0.0,4.0,50,0.00,,SKC,0.00,VWS V14.01,2013-02-07 14:20:00,
2013-02-07 09:30:00,27.6,10.5,30.48,NE,45,0.0,2.0,48,0.00,,SKC,0.00,VWS V14.01,2013-02-07 14:30:00,
2013-02-07 09:40:00,27.8,10.2,30.49,NE,45,0.0,3.0,47,0.00,,SKC,0.00,VWS V14.01,2013-02-07 14:40:00,
2013-02-07 09:50:00,28.1,12.3,30.49,NE,45,0.0,2.0,51,0.00,,SKC,0.00,VWS V14.01,2013-02-07 14:50:00,
2013-02-07 10:00:00,28.2,11.0,30.49,NE,45,0.0,3.0,48,0.00,,SKC,0.00,VWS V14.01,2013-02-07 15:00:00,
2013-02-07 10:10:00,28.5,12.2,30.49,NE,45,0.0,2.0,50,0.00,,SKC,0.00,VWS V14.01,2013-02-07 15:10:00,
2013-02-07 10:20:00,28.5,11.3,30.49,NE,45,0.0,3.0,48,0.00,,SKC,0.00,VWS V14.01,2013-02-07 15:20:00,
2013-02-07 10:30:00,29.0,12.7,30.49,ENE,68,0.0,3.0,50,0.00,,SKC,0.00,VWS V14.01,2013-02-07 15:30:00,
2013-02-07 10:50:00,28.8,13.0,30.49,NE,44,0.0,0.0,51,0.00,,SKC,0.00,VWS V14.01,2013-02-07 15:50:00,
2013-02-07 10:51:00,28.8,13.0,30.49,NE,44,2.0,2.0,51,0.00,,SKC,0.00,VWS V14.01,2013-02-07 15:51:00,
2013-02-07 10:56:00,29.0,13.1,30.49,NE,45,0.0,2.0,51,0.00,,SKC,0.00,VWS V14.01,2013-02-07 15:56:00,
2013-02-07 11:00:00,29.1,13.7,30.49,SE,135,4.0,4.0,52,0.00,,SKC,0.00,VWS V14.01,2013-02-07 16:00:00,
2013-02-07 11:02:00,29.1,13.7,30.49,SE,135,0.0,2.0,52,0.00,,SKC,0.00,VWS V14.01,2013-02-07 16:02:00,
2013-02-07 11:07:00,29.1,12.3,30.50,SE,144,5.0,7.0,49,0.00,,SKC,0.00,VWS V14.01,2013-02-07 16:07:00,
2013-02-07 11:10:00,29.0,13.1,30.49,SE,144,0.0,7.0,51,0.00,,SKC,0.00,VWS V14.01,2013-02-07 16:10:00,
2013-02-07 11:12:00,29.0,13.1,30.49,SE,144,1.0,2.0,51,0.00,,SKC,0.00,VWS V14.01,2013-02-07 16:12:00,
2013-02-07 11:17:00,29.0,13.1,30.49,SE,144,0.0,2.0,51,0.00,,SKC,0.00,VWS V14.01,2013-02-07 16:17:00,
2013-02-07 11:20:00,28.8,13.4,30.50,East,85,2.0,4.0,52,0.00,,SKC,0.00,VWS V14.01,2013-02-07 16:20:00,
2013-02-07 11:22:00,28.8,13.4,30.50,East,85,0.0,2.0,52,0.00,,SKC,0.00,VWS V14.01,2013-02-07 16:22:00,
2013-02-07 11:27:00,29.4,14.0,30.50,East,85,0.0,2.0,52,0.00,,SKC,0.00,VWS V14.01,2013-02-07 16:27:00,
2013-02-07 11:30:00,29.3,13.9,30.50,East,85,0.0,2.0,52,0.00,,SKC,0.00,VWS V14.01,2013-02-07 16:30:00,
2013-02-07 11:32:00,29.3,14.3,30.49,East,92,0.0,4.0,53,0.00,,SKC,0.00,VWS V14.01,2013-02-07 16:32:00,
2013-02-07 11:37:00,29.3,13.9,30.49,ESE,113,0.0,4.0,52,0.00,,SKC,0.00,VWS V14.01,2013-02-07 16:37:00,
2013-02-07 11:40:00,29.3,13.4,30.49,ESE,113,1.0,4.0,51,0.00,,SKC,0.00,VWS V14.01,2013-02-07 16:40:00,
2013-02-07 11:42:00,29.3,13.4,30.49,ESE,113,0.0,1.0,51,0.00,,SKC,0.00,VWS V14.01,2013-02-07 16:42:00,
2013-02-07 11:47:00,29.5,14.1,30.48,ESE,113,0.0,1.0,52,0.00,,SKC,0.00,VWS V14.01,2013-02-07 16:47:00,
2013-02-07 11:50:00,29.7,13.4,30.49,ESE,113,0.0,2.0,50,0.00,,SKC,0.00,VWS V14.01,2013-02-07 16:50:00,
2013-02-07 11:52:00,29.7,13.8,30.48,ESE,113,0.0,0.0,51,0.00,,SKC,0.00,VWS V14.01,2013-02-07 16:52:00,
2013-02-07 11:57:00,29.7,14.2,30.48,ESE,113,0.0,1.0,52,0.00,,SKC,0.00,VWS V14.01,2013-02-07 16:57:00,
2013-02-07 12:00:00,30.0,13.6,30.48,NE,47,0.0,4.0,50,0.00,,SKC,0.00,VWS V14.01,2013-02-07 17:00:00,
2013-02-07 12:03:00,30.0,13.6,30.48,NE,47,0.0,2.0,50,0.00,,SKC,0.00,VWS V14.01,2013-02-07 17:03:00,
2013-02-07 12:08:00,30.1,14.2,30.48,NE,51,1.0,2.0,51,0.00,,SKC,0.00,VWS V14.01,2013-02-07 17:08:00,
2013-02-07 12:10:00,30.1,13.7,30.47,NE,51,0.0,3.0,50,0.00,,SKC,0.00,VWS V14.01,2013-02-07 17:10:00,
2013-02-07 12:13:00,30.0,13.6,30.48,NE,51,0.0,0.0,50,0.00,,SKC,0.00,VWS V14.01,2013-02-07 17:13:00,
2013-02-07 12:18:00,30.1,13.7,30.47,NE,51,0.0,3.0,50,0.00,,SKC,0.00,VWS V14.01,2013-02-07 17:18:00,
2013-02-07 12:20:00,30.3,13.9,30.47,NE,51,2.0,3.0,50,0.00,,SKC,0.00,VWS V14.01,2013-02-07 17:20:00,
2013-02-07 12:23:00,30.3,13.9,30.47,NE,51,0.0,2.0,50,0.00,,SKC,0.00,VWS V14.01,2013-02-07 17:23:00,
2013-02-07 12:28:00,30.6,14.2,30.47,NNE,12,1.0,3.0,50,0.00,,SKC,0.00,VWS V14.01,2013-02-07 17:28:00,
2013-02-07 12:30:00,30.9,14.9,30.46,NNE,28,0.0,3.0,51,0.00,,SKC,0.00,VWS V14.01,2013-02-07 17:30:00,
2013-02-07 12:33:00,31.2,14.3,30.46,NNE,28,1.0,1.0,49,0.00,,SKC,0.00,VWS V14.01,2013-02-07 17:33:00,
2013-02-07 12:38:00,31.2,14.7,30.46,NE,34,0.0,3.0,50,0.00,,SKC,0.00,VWS V14.01,2013-02-07 17:38:00,
2013-02-07 12:40:00,31.2,15.6,30.46,NE,49,0.0,3.0,52,0.00,,SKC,0.00,VWS V14.01,2013-02-07 17:40:00,
2013-02-07 12:43:00,31.3,14.8,30.46,NE,49,0.0,1.0,50,0.00,,SKC,0.00,VWS V14.01,2013-02-07 17:43:00,
2013-02-07 12:48:00,31.5,15.0,30.45,NE,36,0.0,2.0,50,0.00,,SKC,0.00,VWS V14.01,2013-02-07 17:48:00,
2013-02-07 12:50:00,31.9,15.4,30.46,NE,36,0.0,2.0,50,0.00,,SKC,0.00,VWS V14.01,2013-02-07 17:50:00,
2013-02-07 12:54:00,32.2,13.8,30.46,NE,36,0.0,1.0,46,0.00,,SKC,0.00,VWS V14.01,2013-02-07 17:54:00,
2013-02-07 12:59:00,32.1,13.7,30.45,NE,38,0.0,2.0,46,0.00,,SKC,0.00,VWS V14.01,2013-02-07 17:59:00,
2013-02-07 13:00:00,32.1,12.7,30.45,NE,38,0.0,2.0,44,0.00,,SKC,0.00,VWS V14.01,2013-02-07 18:00:00,
2013-02-07 13:04:00,31.9,12.5,30.45,ESE,119,0.0,4.0,44,0.00,,SKC,0.00,VWS V14.01,2013-02-07 18:04:00,
2013-02-07 13:09:00,32.1,13.7,30.45,ESE,119,4.0,4.0,46,0.00,,SKC,0.00,VWS V14.01,2013-02-07 18:09:00,
2013-02-07 13:10:00,31.9,13.0,30.45,ENE,70,0.0,4.0,45,0.00,,SKC,0.00,VWS V14.01,2013-02-07 18:10:00,
2013-02-07 13:14:00,31.8,12.9,30.45,ENE,70,0.0,2.0,45,0.00,,SKC,0.00,VWS V14.01,2013-02-07 18:14:00,
2013-02-07 13:19:00,31.2,12.8,30.45,ESE,119,0.0,4.0,46,0.00,,SKC,0.00,VWS V14.01,2013-02-07 18:19:00,
2013-02-07 13:20:00,31.2,14.3,30.45,ESE,119,0.0,4.0,49,0.00,,SKC,0.00,VWS V14.01,2013-02-07 18:20:00,
2013-02-07 13:24:00,31.3,13.4,30.45,ESE,119,0.0,1.0,47,0.00,,SKC,0.00,VWS V14.01,2013-02-07 18:24:00,
2013-02-07 13:29:00,31.8,15.3,30.45,ESE,119,1.0,2.0,50,0.01,,SKC,0.01,VWS V14.01,2013-02-07 18:29:00,
2013-02-07 13:30:00,31.9,14.0,30.45,ESE,119,0.0,2.0,47,0.01,,SKC,0.01,VWS V14.01,2013-02-07 18:30:00,
2013-02-07 13:34:00,31.8,13.4,30.45,ESE,121,0.0,2.0,46,0.01,,SKC,0.01,VWS V14.01,2013-02-07 18:34:00,
2013-02-07 13:39:00,31.6,13.2,30.45,ESE,118,0.0,2.0,46,0.01,,SKC,0.01,VWS V14.01,2013-02-07 18:39:00,
2013-02-07 13:40:00,31.6,14.2,30.45,ESE,118,0.0,2.0,48,0.01,,SKC,0.01,VWS V14.01,2013-02-07 18:40:00,
2013-02-07 13:45:00,31.8,14.4,30.44,ESE,117,1.0,2.0,48,0.01,,SKC,0.01,VWS V14.01,2013-02-07 18:45:00,
2013-02-07 13:50:00,31.9,14.0,30.44,ESE,117,0.0,2.0,47,0.01,,SKC,0.01,VWS V14.01,2013-02-07 18:50:00,
2013-02-07 13:55:00,32.9,15.4,30.44,ESE,117,0.0,0.0,48,0.01,,SKC,0.01,VWS V14.01,2013-02-07 18:55:00,
2013-02-07 14:00:00,32.8,14.3,30.44,ESE,117,0.0,2.0,46,0.01,,SKC,0.01,VWS V14.01,2013-02-07 19:00:00,
2013-02-07 14:05:00,32.7,15.2,30.44,ESE,118,0.0,1.0,48,0.01,,SKC,0.01,VWS V14.01,2013-02-07 19:05:00,
2013-02-07 14:10:00,32.9,16.3,30.44,ESE,117,1.0,1.0,50,0.01,,SKC,0.01,VWS V14.01,2013-02-07 19:10:00,
2013-02-07 14:15:00,32.5,15.0,30.44,ESE,118,0.0,1.0,48,0.01,,SKC,0.01,VWS V14.01,2013-02-07 19:15:00,
2013-02-07 14:20:00,32.1,16.0,30.44,ESE,118,0.0,1.0,51,0.01,,SKC,0.01,VWS V14.01,2013-02-07 19:20:00,
2013-02-07 14:25:00,32.1,15.6,30.44,ESE,117,0.0,2.0,50,0.01,,SKC,0.01,VWS V14.01,2013-02-07 19:25:00,
2013-02-07 14:30:00,32.2,16.6,30.44,ESE,113,0.0,2.0,52,0.01,,SKC,0.01,VWS V14.01,2013-02-07 19:30:00,
2013-02-07 14:37:00,31.9,17.2,30.44,ESE,113,0.0,0.0,54,0.00,,SKC,0.01,VWS V14.01,2013-02-07 19:37:00,
2013-02-07 14:40:00,31.9,17.2,30.44,ESE,113,0.0,0.0,54,0.00,,SKC,0.01,VWS V14.01,2013-02-07 19:40:00,
2013-02-07 14:42:00,31.9,16.7,30.44,ESE,113,0.0,0.0,53,0.00,,SKC,0.01,VWS V14.01,2013-02-07 19:42:00,
2013-02-07 14:47:00,31.9,17.6,30.44,ESE,113,1.0,1.0,55,0.00,,SKC,0.01,VWS V14.01,2013-02-07 19:47:00,
2013-02-07 14:50:00,31.8,16.2,30.44,ESE,113,1.0,1.0,52,0.00,,SKC,0.01,VWS V14.01,2013-02-07 19:50:00,
2013-02-07 14:53:00,31.6,16.0,30.44,ESE,113,0.0,1.0,52,0.00,,SKC,0.01,VWS V14.01,2013-02-07 19:53:00,
2013-02-07 14:58:00,31.5,16.4,30.44,ESE,113,0.0,1.0,53,0.00,,SKC,0.01,VWS V14.01,2013-02-07 19:58:00,
2013-02-07 15:00:00,31.5,16.4,30.44,ESE,113,0.0,1.0,53,0.00,,SKC,0.01,VWS V14.01,2013-02-07 20:00:00,
2013-02-07 15:03:00,31.5,16.8,30.44,ESE,113,0.0,0.0,54,0.00,,SKC,0.01,VWS V14.01,2013-02-07 20:03:00,
2013-02-07 15:08:00,31.6,16.5,30.44,ESE,113,0.0,2.0,53,0.00,,SKC,0.01,VWS V14.01,2013-02-07 20:08:00,
2013-02-07 15:10:00,31.8,17.1,30.44,ESE,113,0.0,2.0,54,0.00,,SKC,0.01,VWS V14.01,2013-02-07 20:10:00,
2013-02-07 15:13:00,31.8,17.1,30.44,ESE,113,0.0,0.0,54,0.00,,SKC,0.01,VWS V14.01,2013-02-07 20:13:00,
2013-02-07 15:18:00,31.8,16.6,30.44,ESE,113,0.0,2.0,53,0.00,,SKC,0.01,VWS V14.01,2013-02-07 20:18:00,
2013-02-07 15:20:00,31.9,16.7,30.44,ESE,113,0.0,2.0,53,0.00,,SKC,0.01,VWS V14.01,2013-02-07 20:20:00,
2013-02-07 15:23:00,31.9,16.7,30.44,ESE,113,0.0,0.0,53,0.00,,SKC,0.01,VWS V14.01,2013-02-07 20:23:00,
2013-02-07 15:28:00,32.2,17.4,30.44,ESE,113,0.0,1.0,54,0.00,,SKC,0.01,VWS V14.01,2013-02-07 20:28:00,
2013-02-07 15:30:00,32.2,17.4,30.44,ESE,113,1.0,1.0,54,0.00,,SKC,0.01,VWS V14.01,2013-02-07 20:30:00,
2013-02-07 15:33:00,32.1,17.8,30.45,ESE,113,0.0,1.0,55,0.00,,SKC,0.01,VWS V14.01,2013-02-07 20:33:00,
2013-02-07 15:38:00,31.9,17.2,30.44,ESE,113,0.0,1.0,54,0.00,,SKC,0.01,VWS V14.01,2013-02-07 20:38:00,
2013-02-07 15:40:00,31.8,17.1,30.44,ESE,113,0.0,1.0,54,0.00,,SKC,0.01,VWS V14.01,2013-02-07 20:40:00,
2013-02-07 15:43:00,31.8,17.1,30.44,ESE,113,0.0,0.0,54,0.00,,SKC,0.01,VWS V14.01,2013-02-07 20:43:00,
2013-02-07 15:48:00,31.6,17.7,30.44,ESE,113,0.0,0.0,56,0.00,,SKC,0.01,VWS V14.01,2013-02-07 20:48:00,
2013-02-07 15:50:00,31.5,18.0,30.44,ESE,113,1.0,1.0,57,0.00,,SKC,0.01,VWS V14.01,2013-02-07 20:50:00,
2013-02-07 15:53:00,31.5,17.6,30.44,ESE,113,0.0,1.0,56,0.00,,SKC,0.01,VWS V14.01,2013-02-07 20:53:00,
2013-02-07 15:59:00,31.3,18.6,30.44,ESE,113,0.0,1.0,59,0.00,,SKC,0.01,VWS V14.01,2013-02-07 20:59:00,
2013-02-07 16:00:00,31.3,18.6,30.44,ESE,113,0.0,1.0,59,0.00,,SKC,0.01,VWS V14.01,2013-02-07 21:00:00,
2013-02-07 16:04:00,31.2,18.5,30.44,ESE,113,0.0,0.0,59,0.00,,SKC,0.01,VWS V14.01,2013-02-07 21:04:00,
2013-02-07 16:09:00,31.2,18.2,30.44,ESE,113,0.0,1.0,58,0.00,,SKC,0.01,VWS V14.01,2013-02-07 21:09:00,
2013-02-07 16:10:00,31.2,17.8,30.44,ESE,113,0.0,1.0,57,0.00,,SKC,0.01,VWS V14.01,2013-02-07 21:10:00,
2013-02-07 16:14:00,31.2,17.8,30.44,ESE,113,0.0,0.0,57,0.00,,SKC,0.01,VWS V14.01,2013-02-07 21:14:00,
2013-02-07 16:19:00,31.2,17.8,30.44,ESE,113,0.0,0.0,57,0.00,,SKC,0.01,VWS V14.01,2013-02-07 21:19:00,
2013-02-07 16:20:00,31.0,17.2,30.44,ESE,113,0.0,1.0,56,0.00,,SKC,0.01,VWS V14.01,2013-02-07 21:20:00,
2013-02-07 16:24:00,31.0,17.2,30.44,ESE,113,0.0,0.0,56,0.00,,SKC,0.01,VWS V14.01,2013-02-07 21:24:00,
2013-02-07 16:29:00,30.9,17.1,30.44,ESE,113,0.0,0.0,56,0.00,,SKC,0.01,VWS V14.01,2013-02-07 21:29:00,
2013-02-07 16:30:00,30.9,17.5,30.45,ESE,113,0.0,0.0,57,0.00,,SKC,0.01,VWS V14.01,2013-02-07 21:30:00,
2013-02-07 16:34:00,30.9,17.5,30.45,ESE,113,0.0,0.0,57,0.00,,SKC,0.01,VWS V14.01,2013-02-07 21:34:00,
2013-02-07 16:39:00,30.7,17.3,30.45,ESE,113,0.0,0.0,57,0.00,,SKC,0.01,VWS V14.01,2013-02-07 21:39:00,
2013-02-07 16:40:00,30.7,17.3,30.45,ESE,113,0.0,0.0,57,0.00,,SKC,0.01,VWS V14.01,2013-02-07 21:40:00,
2013-02-07 16:44:00,30.6,17.2,30.45,ESE,113,0.0,0.0,57,0.00,,SKC,0.01,VWS V14.01,2013-02-07 21:44:00,
2013-02-07 16:49:00,30.4,17.4,30.45,ESE,113,0.0,0.0,58,0.00,,SKC,0.01,VWS V14.01,2013-02-07 21:49:00,
2013-02-07 16:50:00,30.4,17.4,30.45,ESE,113,0.0,0.0,58,0.00,,SKC,0.01,VWS V14.01,2013-02-07 21:50:00,
2013-02-07 16:54:00,30.3,17.7,30.44,ESE,113,0.0,0.0,59,0.00,,SKC,0.01,VWS V14.01,2013-02-07 21:54:00,
2013-02-07 16:59:00,30.3,17.3,30.44,ESE,113,0.0,1.0,58,0.00,,SKC,0.01,VWS V14.01,2013-02-07 21:59:00,
2013-02-07 17:00:00,30.1,17.1,30.44,ESE,113,0.0,1.0,58,0.00,,SKC,0.01,VWS V14.01,2013-02-07 22:00:00,
2013-02-07 17:05:00,30.1,17.5,30.44,ESE,113,0.0,0.0,59,0.00,,SKC,0.01,VWS V14.01,2013-02-07 22:05:00,
2013-02-07 17:10:00,30.0,17.8,30.44,ESE,113,0.0,0.0,60,0.00,,SKC,0.01,VWS V14.01,2013-02-07 22:10:00,
2013-02-07 17:15:00,29.7,17.5,30.43,ESE,113,0.0,1.0,60,0.00,,SKC,0.01,VWS V14.01,2013-02-07 22:15:00,
2013-02-07 17:20:00,29.7,17.5,30.43,ESE,113,0.0,1.0,60,0.00,,SKC,0.01,VWS V14.01,2013-02-07 22:20:00,
2013-02-07 17:25:00,29.5,18.1,30.43,ESE,113,0.0,0.0,62,0.00,,SKC,0.01,VWS V14.01,2013-02-07 22:25:00,
2013-02-07 17:30:00,29.5,18.5,30.43,ESE,113,0.0,0.0,63,0.00,,SKC,0.01,VWS V14.01,2013-02-07 22:30:00,
2013-02-07 17:35:00,29.5,18.1,30.43,ESE,113,0.0,0.0,62,0.00,,SKC,0.01,VWS V14.01,2013-02-07 22:35:00,
2013-02-07 17:40:00,29.5,18.1,30.43,ESE,113,0.0,1.0,62,0.00,,SKC,0.01,VWS V14.01,2013-02-07 22:40:00,
2013-02-07 17:46:00,29.5,18.5,30.43,ESE,113,0.0,1.0,63,0.00,,SKC,0.01,VWS V14.01,2013-02-07 22:46:00,
2013-02-07 17:50:00,29.5,18.8,30.43,ESE,113,0.0,1.0,64,0.00,,SKC,0.01,VWS V14.01,2013-02-07 22:50:00,
2013-02-07 17:51:00,29.5,18.8,30.43,ESE,113,0.0,1.0,64,0.00,,SKC,0.01,VWS V14.01,2013-02-07 22:51:00,
2013-02-07 17:56:00,29.5,18.8,30.43,ESE,113,0.0,0.0,64,0.00,,SKC,0.01,VWS V14.01,2013-02-07 22:56:00,
2013-02-07 18:00:00,29.5,18.8,30.43,ESE,113,0.0,1.0,64,0.00,,SKC,0.01,VWS V14.01,2013-02-07 23:00:00,
2013-02-07 18:01:00,29.5,18.8,30.43,ESE,113,0.0,1.0,64,0.00,,SKC,0.01,VWS V14.01,2013-02-07 23:01:00,
2013-02-07 18:06:00,29.7,18.7,30.43,ESE,113,0.0,2.0,63,0.00,,SKC,0.01,VWS V14.01,2013-02-07 23:06:00,
2013-02-07 18:10:00,29.7,19.0,30.44,ESE,113,0.0,2.0,64,0.00,,SKC,0.01,VWS V14.01,2013-02-07 23:10:00,
2013-02-07 18:11:00,29.7,19.0,30.44,ESE,113,0.0,2.0,64,0.00,,SKC,0.01,VWS V14.01,2013-02-07 23:11:00,
2013-02-07 18:16:00,29.8,19.1,30.43,ESE,113,0.0,1.0,64,0.00,,SKC,0.01,VWS V14.01,2013-02-07 23:16:00,
2013-02-07 18:20:00,30.0,19.7,30.44,ESE,113,0.0,1.0,65,0.00,,SKC,0.01,VWS V14.01,2013-02-07 23:20:00,
2013-02-07 18:21:00,29.8,19.5,30.44,ESE,113,0.0,1.0,65,0.00,,SKC,0.01,VWS V14.01,2013-02-07 23:21:00,
2013-02-07 18:26:00,30.0,20.0,30.44,ESE,113,0.0,1.0,66,0.00,,SKC,0.01,VWS V14.01,2013-02-07 23:26:00,
2013-02-07 18:30:00,30.1,20.1,30.44,ESE,113,0.0,1.0,66,0.00,,SKC,0.01,VWS V14.01,2013-02-07 23:30:00,
2013-02-07 18:31:00,30.1,20.1,30.44,ESE,113,0.0,1.0,66,0.00,,SKC,0.01,VWS V14.01,2013-02-07 23:31:00,
2013-02-07 18:36:00,30.1,20.1,30.44,ESE,113,0.0,2.0,66,0.00,,SKC,0.01,VWS V14.01,2013-02-07 23:36:00,
2013-02-07 18:40:00,30.3,20.3,30.44,ESE,113,0.0,2.0,66,0.00,,SKC,0.01,VWS V14.01,2013-02-07 23:40:00,
2013-02-07 18:41:00,30.3,20.3,30.44,ESE,113,0.0,0.0,66,0.00,,SKC,0.01,VWS V14.01,2013-02-07 23:41:00,
2013-02-07 18:46:00,30.3,20.3,30.44,ESE,113,0.0,0.0,66,0.00,,SKC,0.01,VWS V14.01,2013-02-07 23:46:00,
2013-02-07 18:50:00,30.4,20.1,30.43,ESE,113,1.0,2.0,65,0.00,,SKC,0.01,VWS V14.01,2013-02-07 23:50:00,
2013-02-07 18:51:00,30.4,20.1,30.43,ESE,113,0.0,1.0,65,0.00,,SKC,0.01,VWS V14.01,2013-02-07 23:51:00,
2013-02-07 18:57:00,30.4,20.1,30.43,ESE,113,0.0,1.0,65,0.00,,SKC,0.01,VWS V14.01,2013-02-07 23:57:00,
2013-02-07 19:00:00,30.6,20.6,30.43,ESE,113,0.0,1.0,66,0.00,,SKC,0.01,VWS V14.01,2013-02-08 00:00:00,
2013-02-07 19:02:00,30.6,20.6,30.43,ESE,113,0.0,0.0,66,0.00,,SKC,0.01,VWS V14.01,2013-02-08 00:02:00,
2013-02-07 19:07:00,30.6,20.6,30.43,ESE,113,0.0,2.0,66,0.00,,SKC,0.01,VWS V14.01,2013-02-08 00:07:00,
2013-02-07 19:10:00,30.7,20.7,30.43,ESE,113,0.0,2.0,66,0.00,,SKC,0.01,VWS V14.01,2013-02-08 00:10:00,
2013-02-07 19:12:00,30.7,20.7,30.43,ESE,113,0.0,0.0,66,0.00,,SKC,0.01,VWS V14.01,2013-02-08 00:12:00,
2013-02-07 19:17:00,30.7,20.7,30.43,ESE,113,0.0,2.0,66,0.00,,SKC,0.01,VWS V14.01,2013-02-08 00:17:00,
2013-02-07 19:20:00,30.7,20.7,30.43,ESE,113,0.0,2.0,66,0.00,,SKC,0.01,VWS V14.01,2013-02-08 00:20:00,
2013-02-07 19:22:00,30.7,20.7,30.43,ESE,113,0.0,1.0,66,0.00,,SKC,0.01,VWS V14.01,2013-02-08 00:22:00,
2013-02-07 19:27:00,30.7,20.3,30.43,ESE,113,0.0,2.0,65,0.00,,SKC,0.01,VWS V14.01,2013-02-08 00:27:00,
2013-02-07 19:30:00,30.7,20.7,30.44,ESE,113,0.0,2.0,66,0.00,,SKC,0.01,VWS V14.01,2013-02-08 00:30:00,
2013-02-07 19:32:00,30.7,20.7,30.44,ESE,113,0.0,0.0,66,0.00,,SKC,0.01,VWS V14.01,2013-02-08 00:32:00,
2013-02-07 19:37:00,30.6,20.6,30.44,East,91,0.0,2.0,66,0.00,,SKC,0.01,VWS V14.01,2013-02-08 00:37:00,
2013-02-07 19:40:00,30.6,20.6,30.44,East,91,0.0,2.0,66,0.00,,SKC,0.01,VWS V14.01,2013-02-08 00:40:00,
2013-02-07 19:42:00,30.6,21.0,30.44,East,91,0.0,1.0,67,0.00,,SKC,0.01,VWS V14.01,2013-02-08 00:42:00,
2013-02-07 19:48:00,30.6,21.0,30.44,East,91,0.0,1.0,67,0.00,,SKC,0.01,VWS V14.01,2013-02-08 00:48:00,
2013-02-07 19:50:00,30.6,21.0,30.44,East,91,0.0,1.0,67,0.00,,SKC,0.01,VWS V14.01,2013-02-08 00:50:00,
2013-02-07 19:53:00,30.6,21.0,30.44,East,91,1.0,2.0,67,0.00,,SKC,0.01,VWS V14.01,2013-02-08 00:53:00,
2013-02-07 19:58:00,30.7,20.7,30.44,East,91,0.0,2.0,66,0.00,,SKC,0.01,VWS V14.01,2013-02-08 00:58:00,
2013-02-07 20:00:00,30.7,21.1,30.44,East,91,0.0,2.0,67,0.00,,SKC,0.01,VWS V14.01,2013-02-08 01:00:00,
2013-02-07 20:03:00,30.7,21.1,30.44,East,91,0.0,2.0,67,0.00,,SKC,0.01,VWS V14.01,2013-02-08 01:03:00,
2013-02-07 20:10:00,30.9,21.2,30.43,East,92,0.0,1.0,67,0.00,,SKC,0.01,VWS V14.01,2013-02-08 01:10:00,
2013-02-07 20:15:00,30.9,21.2,30.43,East,92,0.0,1.0,67,0.00,,SKC,0.01,VWS V14.01,2013-02-08 01:15:00,
2013-02-07 20:20:00,30.9,21.2,30.43,East,92,0.0,1.0,67,0.00,,SKC,0.01,VWS V14.01,2013-02-08 01:20:00,
2013-02-07 20:21:00,30.9,21.2,30.43,East,92,0.0,1.0,67,0.00,,SKC,0.01,VWS V14.01,2013-02-08 01:21:00,
2013-02-07 20:26:00,31.0,21.3,30.43,East,92,0.0,1.0,67,0.00,,SKC,0.01,VWS V14.01,2013-02-08 01:26:00,
2013-02-07 20:30:00,31.0,21.3,30.43,East,92,0.0,2.0,67,0.00,,SKC,0.01,VWS V14.01,2013-02-08 01:30:00,
2013-02-07 20:31:00,31.0,21.3,30.43,East,92,0.0,1.0,67,0.00,,SKC,0.01,VWS V14.01,2013-02-08 01:31:00,
2013-02-07 20:36:00,31.0,21.3,30.43,East,92,0.0,1.0,67,0.00,,SKC,0.01,VWS V14.01,2013-02-08 01:36:00,
2013-02-07 20:40:00,31.2,21.9,30.43,East,92,0.0,1.0,68,0.00,,SKC,0.01,VWS V14.01,2013-02-08 01:40:00,
2013-02-07 20:41:00,31.2,21.9,30.43,East,92,0.0,1.0,68,0.00,,SKC,0.01,VWS V14.01,2013-02-08 01:41:00,
2013-02-07 20:46:00,31.2,21.9,30.43,East,92,0.0,2.0,68,0.00,,SKC,0.01,VWS V14.01,2013-02-08 01:46:00,
2013-02-07 20:50:00,31.3,22.0,30.43,East,92,0.0,2.0,68,0.00,,SKC,0.01,VWS V14.01,2013-02-08 01:50:00,
2013-02-07 20:51:00,31.2,21.9,30.43,East,92,0.0,2.0,68,0.00,,SKC,0.01,VWS V14.01,2013-02-08 01:51:00,
2013-02-07 20:56:00,31.3,22.3,30.43,East,92,0.0,2.0,69,0.00,,SKC,0.01,VWS V14.01,2013-02-08 01:56:00,
2013-02-07 21:00:00,31.3,22.3,30.43,East,92,0.0,2.0,69,0.00,,SKC,0.01,VWS V14.01,2013-02-08 02:00:00,
2013-02-07 21:01:00,31.3,22.3,30.43,East,92,0.0,2.0,69,0.00,,SKC,0.01,VWS V14.01,2013-02-08 02:01:00,
2013-02-07 21:06:00,31.5,22.9,30.43,East,92,0.0,2.0,70,0.00,,SKC,0.01,VWS V14.01,2013-02-08 02:06:00,
2013-02-07 21:10:00,31.5,23.2,30.43,East,92,0.0,2.0,71,0.00,,SKC,0.01,VWS V14.01,2013-02-08 02:10:00,
2013-02-07 21:11:00,31.5,23.2,30.43,East,92,0.0,2.0,71,0.00,,SKC,0.01,VWS V14.01,2013-02-08 02:11:00,
2013-02-07 21:16:00,31.5,23.5,30.43,East,92,1.0,1.0,72,0.00,,SKC,0.01,VWS V14.01,2013-02-08 02:16:00,
2013-02-07 21:20:00,31.6,23.6,30.43,East,92,0.0,1.0,72,0.00,,SKC,0.01,VWS V14.01,2013-02-08 02:20:00,
2013-02-07 21:21:00,31.6,23.6,30.43,East,92,0.0,0.0,72,0.00,,SKC,0.01,VWS V14.01,2013-02-08 02:21:00,
2013-02-07 21:26:00,31.5,23.5,30.43,East,92,0.0,2.0,72,0.00,,SKC,0.01,VWS V14.01,2013-02-08 02:26:00,
2013-02-07 21:30:00,31.5,23.5,30.43,East,92,1.0,2.0,72,0.00,,SKC,0.01,VWS V14.01,2013-02-08 02:30:00,
2013-02-07 21:31:00,31.5,23.5,30.43,East,92,0.0,1.0,72,0.00,,SKC,0.01,VWS V14.01,2013-02-08 02:31:00,
2013-02-07 21:37:00,31.5,23.9,30.43,East,92,0.0,1.0,73,0.00,,SKC,0.01,VWS V14.01,2013-02-08 02:37:00,
2013-02-07 21:40:00,31.5,23.9,30.43,East,92,0.0,2.0,73,0.00,,SKC,0.01,VWS V14.01,2013-02-08 02:40:00,
2013-02-07 21:42:00,31.5,23.9,30.43,East,92,2.0,2.0,73,0.00,,SKC,0.01,VWS V14.01,2013-02-08 02:42:00,
2013-02-07 21:47:00,31.5,23.9,30.43,East,92,1.0,2.0,73,0.00,,SKC,0.01,VWS V14.01,2013-02-08 02:47:00,
2013-02-07 21:50:00,31.5,23.9,30.43,East,92,0.0,2.0,73,0.00,,SKC,0.01,VWS V14.01,2013-02-08 02:50:00,
2013-02-07 21:52:00,31.5,23.9,30.43,East,92,0.0,0.0,73,0.00,,SKC,0.01,VWS V14.01,2013-02-08 02:52:00,
2013-02-07 21:57:00,31.5,23.9,30.43,East,92,1.0,2.0,73,0.00,,SKC,0.01,VWS V14.01,2013-02-08 02:57:00,
2013-02-07 22:00:00,31.6,24.0,30.43,East,92,0.0,2.0,73,0.00,,SKC,0.01,VWS V14.01,2013-02-08 03:00:00,
2013-02-07 22:02:00,31.6,24.0,30.43,East,92,0.0,0.0,73,0.00,,SKC,0.01,VWS V14.01,2013-02-08 03:02:00,
2013-02-07 22:07:00,31.6,24.0,30.43,East,92,0.0,4.0,73,0.00,,SKC,0.01,VWS V14.01,2013-02-08 03:07:00,
2013-02-07 22:10:00,31.6,24.0,30.43,East,93,0.0,4.0,73,0.00,,SKC,0.01,VWS V14.01,2013-02-08 03:10:00,
2013-02-07 22:12:00,31.6,24.0,30.43,East,93,0.0,2.0,73,0.00,,SKC,0.01,VWS V14.01,2013-02-08 03:12:00,
2013-02-07 22:17:00,31.6,24.0,30.44,East,93,0.0,2.0,73,0.00,,SKC,0.01,VWS V14.01,2013-02-08 03:17:00,
2013-02-07 22:20:00,31.6,24.3,30.44,East,93,0.0,2.0,74,0.00,,SKC,0.01,VWS V14.01,2013-02-08 03:20:00,
2013-02-07 22:22:00,31.6,24.3,30.43,East,93,0.0,0.0,74,0.00,,SKC,0.01,VWS V14.01,2013-02-08 03:22:00,
2013-02-07 22:27:00,31.5,24.2,30.43,East,93,0.0,2.0,74,0.00,,SKC,0.01,VWS V14.01,2013-02-08 03:27:00,
2013-02-07 22:30:00,31.5,24.2,30.43,East,93,1.0,2.0,74,0.00,,SKC,0.01,VWS V14.01,2013-02-08 03:30:00,
2013-02-07 22:33:00,31.5,24.2,30.43,East,93,0.0,2.0,74,0.00,,SKC,0.01,VWS V14.01,2013-02-08 03:33:00,
2013-02-07 22:38:00,31.5,24.2,30.43,East,93,0.0,2.0,74,0.00,,SKC,0.01,VWS V14.01,2013-02-08 03:38:00,
2013-02-07 22:40:00,31.5,24.5,30.43,East,93,1.0,2.0,75,0.00,,SKC,0.01,VWS V14.01,2013-02-08 03:40:00,
2013-02-07 22:43:00,31.5,24.5,30.43,East,93,0.0,1.0,75,0.00,,SKC,0.01,VWS V14.01,2013-02-08 03:43:00,
2013-02-07 22:48:00,31.5,24.2,30.43,East,93,0.0,2.0,74,0.00,,SKC,0.01,VWS V14.01,2013-02-08 03:48:00,
2013-02-07 22:50:00,31.5,24.2,30.42,East,93,0.0,2.0,74,0.00,,SKC,0.01,VWS V14.01,2013-02-08 03:50:00,
2013-02-07 22:53:00,31.5,24.2,30.42,East,93,0.0,2.0,74,0.00,,SKC,0.01,VWS V14.01,2013-02-08 03:53:00,
2013-02-07 22:58:00,31.5,24.2,30.42,East,96,0.0,2.0,74,0.00,,SKC,0.01,VWS V14.01,2013-02-08 03:58:00,
2013-02-07 23:00:00,31.3,24.0,30.42,ESE,109,0.0,4.0,74,0.00,,SKC,0.01,VWS V14.01,2013-02-08 04:00:00,
2013-02-07 23:03:00,31.3,24.0,30.42,ESE,109,1.0,2.0,74,0.00,,SKC,0.01,VWS V14.01,2013-02-08 04:03:00,
2013-02-07 23:08:00,31.3,24.0,30.41,ESE,111,1.0,2.0,74,0.00,,SKC,0.01,VWS V14.01,2013-02-08 04:08:00,
2013-02-07 23:10:00,31.5,24.2,30.41,ESE,103,0.0,4.0,74,0.00,,SKC,0.01,VWS V14.01,2013-02-08 04:10:00,
2013-02-07 23:13:00,31.3,24.0,30.41,ESE,105,0.0,2.0,74,0.00,,SKC,0.01,VWS V14.01,2013-02-08 04:13:00,
2013-02-07 23:19:00,31.3,24.0,30.40,ESE,105,0.0,2.0,74,0.00,,SKC,0.01,VWS V14.01,2013-02-08 04:19:00,
2013-02-07 23:20:00,31.3,24.0,30.40,ESE,112,0.0,2.0,74,0.00,,SKC,0.01,VWS V14.01,2013-02-08 04:20:00,
2013-02-07 23:30:00,31.3,24.0,30.40,East,90,0.0,4.0,74,0.00,,SKC,0.01,VWS V14.01,2013-02-08 04:30:00,
2013-02-07 23:40:00,31.3,24.0,30.39,East,90,0.0,5.0,74,0.00,,SKC,0.01,VWS V14.01,2013-02-08 04:40:00,
2013-02-07 23:50:00,31.5,24.2,30.38,ESE,112,1.0,5.0,74,0.00,,SKC,0.01,VWS V14.01,2013-02-08 04:50:00,